Flight Track Log - Related Links

Times and Time Zones

All times are in EDT time to prevent confusion due to time zone crossing. See the EJA929 flight status page for this flight to view local times or setup timezone preferences in your user account.

Time Position Orientation Groundspeed Altitude Reporting Facility
EDT Latitude Longitude Course Direction KTS MPH feet Rate Location/Type
Wed 01:26:27 PM 38.0072 -84.6347 244° Southwest 191 220 30,000  Level Indianapolis Center
Wed 01:27:28 PM 37.9828 -84.6981 244° Southwest 254 292 5,300 -10,195 Descending Indianapolis Center
Wed 01:28:30 PM 37.9761 -84.8097 266° West 273 314 9,100 2,710 Climbing Indianapolis Center
Wed 01:29:32 PM 37.9708 -84.9178 266° West 304 350 10,900 1,790 Climbing Indianapolis Center
Wed 01:30:34 PM 37.9803 -85.0428 276° West 342 394 12,800 1,902 Climbing Indianapolis Center
Wed 01:31:35 PM 38.0669 -85.1192 325° Northwest 373 429 14,800 1,805 Climbing Indianapolis Center
Wed 01:32:37 PM 38.1597 -85.1875 330° Northwest 383 441 16,500 1,548 Climbing Indianapolis Center
Wed 01:33:39 PM 38.2578 -85.2489 334° Northwest 391 450 18,000 1,512 Climbing Indianapolis Center
Wed 01:34:40 PM 38.3619 -85.3017 338° Northwest 409 471 19,600 1,512 Climbing Indianapolis Center
Wed 01:35:42 PM 38.4572 -85.3756 329° Northwest 406 467 21,100 1,597 Climbing Indianapolis Center
Wed 01:36:44 PM 38.5767 -85.4686 329° Northwest 420 483 22,900 1,561 Climbing Indianapolis Center
Wed 01:37:45 PM 38.6694 -85.5425 328° Northwest 424 488 24,300 1,317 Climbing Indianapolis Center
Wed 01:38:47 PM 38.7719 -85.6219 329° Northwest 431 496 25,600 1,306 Climbing Indianapolis Center
Wed 01:39:49 PM 38.8756 -85.7042 328° Northwest 437 503 27,000 1,220 Climbing Indianapolis Center
Wed 01:40:50 PM 38.9808 -85.7881 328° Northwest 443 510 28,100 1,220 Climbing Indianapolis Center
Wed 01:41:52 PM 39.1106 -85.8903 329° Northwest 454 522 29,500 919 Climbing Indianapolis Center
Wed 01:42:54 PM 39.2214 -85.9781 328° Northwest 464 534 30,000 242 Climbing Indianapolis Center
Wed 01:43:56 PM 39.3386 -86.0725 328° Northwest 491 565 30,000  Level Indianapolis Center
Wed 01:44:57 PM 39.4544 -86.1658 328° Northwest 491 565 30,000  Level Indianapolis Center
Wed 01:45:59 PM 39.5681 -86.2586 328° Northwest 484 557 30,000  Level Indianapolis Center
Wed 01:47:01 PM 39.6917 -86.3583 328° Northwest 481 554 30,000  Level Indianapolis Center
Wed 01:48:02 PM 39.8011 -86.4481 328° Northwest 478 550 30,000  Level Indianapolis Center
Wed 01:49:04 PM 39.9106 -86.5356 328° Northwest 465 535 30,000  Level Indianapolis Center
Wed 01:50:06 PM 40.0183 -86.6244 328° Northwest 460 529 30,000  Level Indianapolis Center
Wed 01:51:08 PM 40.1267 -86.7122 328° Northwest 458 527 30,000  Level Indianapolis Center
Wed 01:52:09 PM 40.2556 -86.8186 328° Northwest 458 527 30,000  Level Indianapolis Center
Wed 01:53:11 PM 40.3625 -86.9069 328° Northwest 457 526 30,000  Level Indianapolis Center
Wed 01:54:13 PM 40.4686 -86.9961 327° Northwest 454 522 30,000  Level Indianapolis Center
Wed 01:55:14 PM 40.5933 -87.0308 348° North 459 528 30,000  Level Indianapolis Center
Wed 01:56:16 PM 40.7217 -87.0492 354° North 464 534 30,000  Level Indianapolis Center
Wed 01:57:17 PM 40.8483 -87.0683 353° North 460 529 30,000  Level Indianapolis Center
Wed 01:58:19 PM 40.9769 -87.0869 354° North 463 533 30,000  Level Indianapolis Center
Wed 01:59:21 PM 41.1286 -87.1094 354° North 458 527 30,000  Level Indianapolis Center
Wed 02:00:22 PM 41.2561 -87.1267 354° North 460 529 30,000  Level Indianapolis Center
Wed 02:01:44 PM 41.4289 -87.1550 353° North 460 529 30,000 -625 Level Chicago Center
Wed 02:02:46 PM 41.5561 -87.1736 354° North 463 533 28,500 -1,984 Descending Chicago Center
Wed 02:03:48 PM 41.6942 -87.1953 353° North 497 572 25,900 -2,468 Descending Chicago Center
Wed 02:04:50 PM 41.8308 -87.2161 354° North 500 575 23,400 -2,371 Descending Chicago Center
Wed 02:05:52 PM 41.9797 -87.2403 353° North 458 527 21,000 -2,613 Descending Chicago Center
Wed 02:06:54 PM 42.0983 -87.2589 353° North 437 503 18,000 -2,855 Descending Chicago Center
Wed 02:07:56 PM 42.2161 -87.2764 354° North 433 498 15,100 -968 Descending Chicago Center
Wed 02:08:58 PM 42.3183 -87.2900 354° North 407 468 16,000 -145 Climbing Chicago Center
Wed 02:10:00 PM 42.4594 -87.3136 353° North 423 487 14,800 -1,694 Descending Chicago Center
Wed 02:11:02 PM 42.5747 -87.3308 354° North 420 483 12,500 -2,177 Descending Chicago Center
Wed 02:12:04 PM 42.6594 -87.3908 332° Northwest 376 433 10,300 -1,210 Descending Chicago Center
Wed 02:13:06 PM 42.7133 -87.4739 311° West 311 358 10,000 -145 Descending Chicago Center
Wed 02:14:08 PM 42.7633 -87.5481 313° West 278 320 10,000 -145 Level Chicago Center
Wed 02:15:10 PM 42.8131 -87.6208 313° West 266 306 9,700 -677 Descending Chicago Center
Wed 02:16:12 PM 42.8569 -87.6850 313° West 245 282 8,600 -1,210 Descending Chicago Center
Wed 02:17:14 PM 42.9081 -87.7528 316° Northwest 229 264 7,200 -1,161 Descending Chicago Center
Wed 02:18:16 PM 42.9750 -87.7458 North 237 273 6,200 -1,113 Descending Chicago Center
Wed 02:19:18 PM 43.0392 -87.7414 North 233 268 4,900 -1,210 Descending Chicago Center
Wed 02:20:20 PM 43.0617 -87.8011 297° West 228 262 3,700 -1,016 Descending Chicago Center
Wed 02:21:22 PM 43.0414 -87.8722 249° West 212 244 2,800 -968 Descending Chicago Center
Wed 02:22:24 PM 42.9997 -87.8872 195° South 183 211 1,700 -677 Descending Chicago Center
Wed 02:23:26 PM 42.9561 -87.8931 186° South 164 189 1,400 -290 Descending Chicago Center

Login

Don't have an account? Register now (free) for customized features, flight alerts, and more!